sensor_id;sensor_type;location;lat;lon;timestamp;pressure;altitude;pressure_sealevel;temperature;humidity
70302;BME280;57706;56.326;43.882;2022-11-22T00:00:06;101141.28;;;-2.06;77.43
70302;BME280;57706;56.326;43.882;2022-11-22T00:02:35;101145.28;;;-1.99;76.88
70302;BME280;57706;56.326;43.882;2022-11-22T00:05:01;101145.53;;;-2.05;76.83
70302;BME280;57706;56.326;43.882;2022-11-22T00:07:30;101145.66;;;-2.08;76.90
70302;BME280;57706;56.326;43.882;2022-11-22T00:09:55;101139.59;;;-2.07;76.71
70302;BME280;57706;56.326;43.882;2022-11-22T00:12:21;101138.81;;;-2.09;76.79
70302;BME280;57706;56.326;43.882;2022-11-22T00:14:47;101138.78;;;-2.08;76.91
70302;BME280;57706;56.326;43.882;2022-11-22T00:17:13;101137.41;;;-1.96;77.05
70302;BME280;57706;56.326;43.882;2022-11-22T00:19:39;101135.69;;;-1.95;76.62
70302;BME280;57706;56.326;43.882;2022-11-22T00:22:05;101130.66;;;-1.98;76.98
70302;BME280;57706;56.326;43.882;2022-11-22T00:24:31;101138.59;;;-2.03;76.86
70302;BME280;57706;56.326;43.882;2022-11-22T00:26:57;101129.56;;;-1.92;77.14
70302;BME280;57706;56.326;43.882;2022-11-22T00:29:24;101127.28;;;-2.00;76.20
70302;BME280;57706;56.326;43.882;2022-11-22T00:31:50;101125.50;;;-1.98;77.03
70302;BME280;57706;56.326;43.882;2022-11-22T00:34:16;101126.81;;;-1.88;76.61
70302;BME280;57706;56.326;43.882;2022-11-22T00:36:42;101122.75;;;-1.94;76.64
70302;BME280;57706;56.326;43.882;2022-11-22T00:39:07;101129.81;;;-2.19;76.85
70302;BME280;57706;56.326;43.882;2022-11-22T00:41:34;101133.00;;;-2.14;77.46
70302;BME280;57706;56.326;43.882;2022-11-22T00:44:20;101129.47;;;-2.12;76.99
70302;BME280;57706;56.326;43.882;2022-11-22T00:46:46;101132.53;;;-2.02;76.92
70302;BME280;57706;56.326;43.882;2022-11-22T00:49:11;101132.44;;;-2.00;76.51
70302;BME280;57706;56.326;43.882;2022-11-22T00:51:37;101133.16;;;-1.97;76.27
70302;BME280;57706;56.326;43.882;2022-11-22T00:54:04;101134.84;;;-1.96;76.48
70302;BME280;57706;56.326;43.882;2022-11-22T00:56:30;101141.69;;;-1.95;76.51
70302;BME280;57706;56.326;43.882;2022-11-22T00:58:56;101135.28;;;-2.06;76.75
70302;BME280;57706;56.326;43.882;2022-11-22T01:01:22;101134.84;;;-1.96;77.17
70302;BME280;57706;56.326;43.882;2022-11-22T01:03:48;101134.06;;;-1.98;76.39
70302;BME280;57706;56.326;43.882;2022-11-22T01:06:14;101134.31;;;-2.04;76.49
70302;BME280;57706;56.326;43.882;2022-11-22T01:08:40;101128.16;;;-2.00;77.01
70302;BME280;57706;56.326;43.882;2022-11-22T01:11:24;101131.50;;;-1.98;77.21
70302;BME280;57706;56.326;43.882;2022-11-22T01:13:50;101134.97;;;-1.99;76.62
70302;BME280;57706;56.326;43.882;2022-11-22T01:16:16;101135.34;;;-2.08;76.87
70302;BME280;57706;56.326;43.882;2022-11-22T01:18:42;101135.88;;;-2.00;76.64
70302;BME280;57706;56.326;43.882;2022-11-22T01:21:08;101130.72;;;-2.00;76.62
70302;BME280;57706;56.326;43.882;2022-11-22T01:23:35;101128.91;;;-1.98;77.02
70302;BME280;57706;56.326;43.882;2022-11-22T01:26:01;101124.91;;;-2.05;77.15
70302;BME280;57706;56.326;43.882;2022-11-22T01:28:27;101114.22;;;-1.96;77.26
70302;BME280;57706;56.326;43.882;2022-11-22T01:30:53;101123.13;;;-2.03;76.94
70302;BME280;57706;56.326;43.882;2022-11-22T01:33:37;101115.59;;;-2.08;77.11
70302;BME280;57706;56.326;43.882;2022-11-22T01:36:03;101119.50;;;-1.99;77.09
70302;BME280;57706;56.326;43.882;2022-11-22T01:38:29;101119.47;;;-1.97;77.09
70302;BME280;57706;56.326;43.882;2022-11-22T01:40:55;101114.94;;;-1.92;77.03
70302;BME280;57706;56.326;43.882;2022-11-22T01:43:24;101109.53;;;-1.86;76.85
70302;BME280;57706;56.326;43.882;2022-11-22T01:45:55;101107.66;;;-1.82;76.53
70302;BME280;57706;56.326;43.882;2022-11-22T01:51:48;101102.00;;;-1.70;76.85
70302;BME280;57706;56.326;43.882;2022-11-22T01:54:19;101089.94;;;-1.69;76.16
70302;BME280;57706;56.326;43.882;2022-11-22T01:56:50;101096.50;;;-1.62;76.33
70302;BME280;57706;56.326;43.882;2022-11-22T01:59:21;101090.38;;;-1.59;76.43
70302;BME280;57706;56.326;43.882;2022-11-22T02:01:49;101092.97;;;-1.59;76.19
70302;BME280;57706;56.326;43.882;2022-11-22T02:04:16;101086.00;;;-1.57;76.71
70302;BME280;57706;56.326;43.882;2022-11-22T02:09:15;101099.75;;;-1.57;76.79
70302;BME280;57706;56.326;43.882;2022-11-22T02:11:53;101104.50;;;-1.47;76.87
70302;BME280;57706;56.326;43.882;2022-11-22T02:14:24;101094.03;;;-1.44;75.90
70302;BME280;57706;56.326;43.882;2022-11-22T02:16:50;101086.75;;;-1.55;76.52
70302;BME280;57706;56.326;43.882;2022-11-22T02:22:01;101089.84;;;-1.47;76.72
70302;BME280;57706;56.326;43.882;2022-11-22T02:24:53;101086.50;;;-1.49;76.41
70302;BME280;57706;56.326;43.882;2022-11-22T02:27:20;101082.03;;;-1.45;76.70
70302;BME280;57706;56.326;43.882;2022-11-22T02:30:05;101089.31;;;-1.34;76.81
70302;BME280;57706;56.326;43.882;2022-11-22T02:32:31;101083.44;;;-1.38;75.93
70302;BME280;57706;56.326;43.882;2022-11-22T02:34:57;101085.28;;;-1.40;76.35
70302;BME280;57706;56.326;43.882;2022-11-22T02:37:26;101093.22;;;-1.45;76.32
70302;BME280;57706;56.326;43.882;2022-11-22T02:40:04;101093.06;;;-1.42;76.82
70302;BME280;57706;56.326;43.882;2022-11-22T02:42:32;101093.06;;;-1.42;76.42
70302;BME280;57706;56.326;43.882;2022-11-22T02:45:00;101095.44;;;-1.37;76.88
70302;BME280;57706;56.326;43.882;2022-11-22T02:47:26;101091.25;;;-1.40;76.58
70302;BME280;57706;56.326;43.882;2022-11-22T02:49:52;101085.38;;;-1.43;76.74
70302;BME280;57706;56.326;43.882;2022-11-22T02:52:18;101095.00;;;-1.47;76.05
70302;BME280;57706;56.326;43.882;2022-11-22T02:54:45;101081.34;;;-1.49;76.36
70302;BME280;57706;56.326;43.882;2022-11-22T02:57:11;101088.66;;;-1.40;76.78
70302;BME280;57706;56.326;43.882;2022-11-22T02:59:37;101086.34;;;-1.46;76.83
70302;BME280;57706;56.326;43.882;2022-11-22T03:02:03;101086.94;;;-1.39;76.89
70302;BME280;57706;56.326;43.882;2022-11-22T03:04:29;101087.66;;;-1.35;77.10
70302;BME280;57706;56.326;43.882;2022-11-22T03:06:57;101079.13;;;-1.38;76.36
70302;BME280;57706;56.326;43.882;2022-11-22T03:09:24;101071.13;;;-1.31;76.77
70302;BME280;57706;56.326;43.882;2022-11-22T03:11:52;101071.19;;;-1.33;76.73
70302;BME280;57706;56.326;43.882;2022-11-22T03:14:18;101070.72;;;-1.41;76.62
70302;BME280;57706;56.326;43.882;2022-11-22T03:16:45;101073.84;;;-1.34;77.30
70302;BME280;57706;56.326;43.882;2022-11-22T03:19:12;101072.03;;;-1.32;76.96
70302;BME280;57706;56.326;43.882;2022-11-22T03:21:39;101073.69;;;-1.31;76.60
70302;BME280;57706;56.326;43.882;2022-11-22T03:24:24;101070.09;;;-1.27;76.35
70302;BME280;57706;56.326;43.882;2022-11-22T03:26:50;101061.84;;;-1.35;76.73
70302;BME280;57706;56.326;43.882;2022-11-22T03:29:16;101070.50;;;-1.36;76.98
70302;BME280;57706;56.326;43.882;2022-11-22T03:31:42;101071.78;;;-1.47;76.71
70302;BME280;57706;56.326;43.882;2022-11-22T03:34:10;101062.06;;;-1.40;77.11
70302;BME280;57706;56.326;43.882;2022-11-22T03:36:36;101058.63;;;-1.41;76.77
70302;BME280;57706;56.326;43.882;2022-11-22T03:39:02;101060.03;;;-1.33;77.26
70302;BME280;57706;56.326;43.882;2022-11-22T03:41:28;101056.00;;;-1.39;77.54
70302;BME280;57706;56.326;43.882;2022-11-22T03:43:54;101047.34;;;-1.38;77.17
70302;BME280;57706;56.326;43.882;2022-11-22T03:46:20;101057.50;;;-1.35;77.25
70302;BME280;57706;56.326;43.882;2022-11-22T03:48:46;101057.47;;;-1.33;77.21
70302;BME280;57706;56.326;43.882;2022-11-22T03:51:12;101065.06;;;-1.49;76.70
70302;BME280;57706;56.326;43.882;2022-11-22T03:53:38;101059.75;;;-1.46;77.67
70302;BME280;57706;56.326;43.882;2022-11-22T03:56:04;101062.88;;;-1.40;77.28
70302;BME280;57706;56.326;43.882;2022-11-22T03:58:30;101057.19;;;-1.27;77.42
70302;BME280;57706;56.326;43.882;2022-11-22T04:00:56;101061.69;;;-1.32;77.21
70302;BME280;57706;56.326;43.882;2022-11-22T04:03:22;101055.28;;;-1.43;77.09
70302;BME280;57706;56.326;43.882;2022-11-22T04:05:48;101063.63;;;-1.38;77.54
70302;BME280;57706;56.326;43.882;2022-11-22T04:08:14;101058.63;;;-1.41;77.16
70302;BME280;57706;56.326;43.882;2022-11-22T04:10:40;101063.22;;;-1.47;77.29
70302;BME280;57706;56.326;43.882;2022-11-22T04:13:06;101060.56;;;-1.46;77.84
70302;BME280;57706;56.326;43.882;2022-11-22T04:15:32;101075.50;;;-1.33;77.43
70302;BME280;57706;56.326;43.882;2022-11-22T04:17:58;101069.81;;;-1.40;77.16
70302;BME280;57706;56.326;43.882;2022-11-22T04:20:26;101076.06;;;-1.27;77.22
70302;BME280;57706;56.326;43.882;2022-11-22T04:23:13;101073.28;;;-1.22;77.34
70302;BME280;57706;56.326;43.882;2022-11-22T04:25:41;101063.97;;;-1.25;77.05
70302;BME280;57706;56.326;43.882;2022-11-22T04:28:09;101066.59;;;-1.26;76.73
70302;BME280;57706;56.326;43.882;2022-11-22T04:30:36;101063.38;;;-1.31;76.99
70302;BME280;57706;56.326;43.882;2022-11-22T04:33:21;101060.69;;;-1.28;76.98
70302;BME280;57706;56.326;43.882;2022-11-22T04:35:47;101059.78;;;-1.27;76.40
70302;BME280;57706;56.326;43.882;2022-11-22T04:38:14;101063.38;;;-1.31;76.48
70302;BME280;57706;56.326;43.882;2022-11-22T04:40:40;101061.91;;;-1.37;77.23
70302;BME280;57706;56.326;43.882;2022-11-22T04:43:07;101058.47;;;-1.38;77.19
70302;BME280;57706;56.326;43.882;2022-11-22T04:45:53;101061.84;;;-1.35;76.97
70302;BME280;57706;56.326;43.882;2022-11-22T04:48:19;101064.13;;;-1.29;76.88
70302;BME280;57706;56.326;43.882;2022-11-22T04:50:46;101061.28;;;-1.23;77.01
70302;BME280;57706;56.326;43.882;2022-11-22T04:53:30;101070.91;;;-1.27;76.76
70302;BME280;57706;56.326;43.882;2022-11-22T04:55:57;101070.09;;;-1.27;77.69
70302;BME280;57706;56.326;43.882;2022-11-22T04:58:23;101070.09;;;-1.27;77.46
70302;BME280;57706;56.326;43.882;2022-11-22T05:00:49;101062.19;;;-1.24;77.42
70302;BME280;57706;56.326;43.882;2022-11-22T05:03:16;101069.03;;;-1.23;77.26
70302;BME280;57706;56.326;43.882;2022-11-22T05:05:43;101063.38;;;-1.31;76.99
70302;BME280;57706;56.326;43.882;2022-11-22T05:08:10;101063.09;;;-1.25;77.08
70302;BME280;57706;56.326;43.882;2022-11-22T05:10:36;101060.47;;;-1.23;76.89
70302;BME280;57706;56.326;43.882;2022-11-22T05:13:23;101068.41;;;-1.28;76.91
70302;BME280;57706;56.326;43.882;2022-11-22T05:16:10;101057.09;;;-1.26;76.91
70302;BME280;57706;56.326;43.882;2022-11-22T05:18:36;101060.28;;;-1.59;77.24
70302;BME280;57706;56.326;43.882;2022-11-22T05:21:12;101063.78;;;-1.41;76.84
70302;BME280;57706;56.326;43.882;2022-11-22T05:23:57;101059.47;;;-1.21;76.41
70302;BME280;57706;56.326;43.882;2022-11-22T05:26:28;101055.81;;;-1.55;77.50
70302;BME280;57706;56.326;43.882;2022-11-22T05:28:55;101063.09;;;-1.44;77.52
70302;BME280;57706;56.326;43.882;2022-11-22T05:31:23;101060.72;;;-1.49;77.56
70302;BME280;57706;56.326;43.882;2022-11-22T05:33:53;101053.53;;;-1.42;77.51
70302;BME280;57706;56.326;43.882;2022-11-22T05:36:20;101053.22;;;-1.34;77.45
70302;BME280;57706;56.326;43.882;2022-11-22T05:38:47;101064.63;;;-1.21;77.26
70302;BME280;57706;56.326;43.882;2022-11-22T05:41:14;101062.97;;;-1.22;77.08
70302;BME280;57706;56.326;43.882;2022-11-22T05:43:40;101058.22;;;-1.31;76.86
70302;BME280;57706;56.326;43.882;2022-11-22T05:46:17;101067.72;;;-1.32;77.02
70302;BME280;57706;56.326;43.882;2022-11-22T05:48:45;101064.94;;;-1.27;77.10
70302;BME280;57706;56.326;43.882;2022-11-22T05:51:16;101066.31;;;-1.20;76.70
70302;BME280;57706;56.326;43.882;2022-11-22T05:53:43;101063.75;;;-1.20;76.85
70302;BME280;57706;56.326;43.882;2022-11-22T05:56:14;101065.91;;;-1.11;77.19
70302;BME280;57706;56.326;43.882;2022-11-22T05:58:41;101062.97;;;-1.22;76.26
70302;BME280;57706;56.326;43.882;2022-11-22T06:01:10;101071.19;;;-1.14;76.47
70302;BME280;57706;56.326;43.882;2022-11-22T06:03:36;101060.16;;;-1.17;76.55
70302;BME280;57706;56.326;43.882;2022-11-22T06:06:03;101064.63;;;-1.21;76.94
70302;BME280;57706;56.326;43.882;2022-11-22T06:08:31;101052.78;;;-1.25;77.46
70302;BME280;57706;56.326;43.882;2022-11-22T06:11:09;101057.53;;;-1.16;77.01
70302;BME280;57706;56.326;43.882;2022-11-22T06:13:39;101051.88;;;-1.05;76.49
70302;BME280;57706;56.326;43.882;2022-11-22T06:16:06;101055.59;;;-1.11;76.37
70302;BME280;57706;56.326;43.882;2022-11-22T06:18:33;101052.91;;;-0.90;76.98
70302;BME280;57706;56.326;43.882;2022-11-22T06:21:01;101061.81;;;-0.78;76.22
70302;BME280;57706;56.326;43.882;2022-11-22T06:23:27;101059.19;;;-0.76;75.84
70302;BME280;57706;56.326;43.882;2022-11-22T06:26:21;101050.22;;;-0.69;76.07
70302;BME280;57706;56.326;43.882;2022-11-22T06:28:47;101051.22;;;-0.72;75.90
70302;BME280;57706;56.326;43.882;2022-11-22T06:31:18;101046.75;;;-0.68;75.67
70302;BME280;57706;56.326;43.882;2022-11-22T06:33:45;101044.22;;;-0.70;75.90
70302;BME280;57706;56.326;43.882;2022-11-22T06:36:13;101041.41;;;-0.65;75.13
70302;BME280;57706;56.326;43.882;2022-11-22T06:38:41;101048.94;;;-0.60;74.85
70302;BME280;57706;56.326;43.882;2022-11-22T06:41:09;101044.19;;;-0.50;75.51
70302;BME280;57706;56.326;43.882;2022-11-22T06:43:37;101058.00;;;-0.51;74.85
70302;BME280;57706;56.326;43.882;2022-11-22T06:46:05;101043.88;;;-0.44;75.25
70302;BME280;57706;56.326;43.882;2022-11-22T06:48:33;101047.91;;;-0.38;75.12
70302;BME280;57706;56.326;43.882;2022-11-22T06:51:05;101050.25;;;-0.51;74.08
70302;BME280;57706;56.326;43.882;2022-11-22T06:53:33;101048.56;;;-0.70;74.86
70302;BME280;57706;56.326;43.882;2022-11-22T06:56:08;101049.78;;;-0.60;74.92
70302;BME280;57706;56.326;43.882;2022-11-22T06:58:34;101046.97;;;-0.55;74.81
70302;BME280;57706;56.326;43.882;2022-11-22T07:01:15;101048.69;;;-0.73;74.73
70302;BME280;57706;56.326;43.882;2022-11-22T07:03:42;101038.53;;;-0.59;75.08
70302;BME280;57706;56.326;43.882;2022-11-22T07:06:09;101028.97;;;-0.57;74.38
70302;BME280;57706;56.326;43.882;2022-11-22T07:08:36;101031.50;;;-0.55;74.86
70302;BME280;57706;56.326;43.882;2022-11-22T07:11:08;101031.28;;;-0.33;74.07
70302;BME280;57706;56.326;43.882;2022-11-22T07:13:35;101025.06;;;-0.29;74.62
70302;BME280;57706;56.326;43.882;2022-11-22T07:16:02;101019.72;;;-0.08;74.26
70302;BME280;57706;56.326;43.882;2022-11-22T07:18:29;101024.91;;;-0.43;73.92
70302;BME280;57706;56.326;43.882;2022-11-22T07:21:07;101007.50;;;-0.22;73.16
70302;BME280;57706;56.326;43.882;2022-11-22T07:23:34;101016.00;;;-0.20;73.28
70302;BME280;57706;56.326;43.882;2022-11-22T07:25:59;101026.84;;;0.05;73.31
70302;BME280;57706;56.326;43.882;2022-11-22T07:28:25;101030.75;;;0.12;71.89
70302;BME280;57706;56.326;43.882;2022-11-22T07:30:52;101028.28;;;0.10;72.77
70302;BME280;57706;56.326;43.882;2022-11-22T07:33:18;101032.50;;;0.29;72.38
70302;BME280;57706;56.326;43.882;2022-11-22T07:35:44;101032.47;;;0.13;72.50
70302;BME280;57706;56.326;43.882;2022-11-22T07:38:10;101024.66;;;0.31;72.12
70302;BME280;57706;56.326;43.882;2022-11-22T07:40:35;101024.53;;;0.50;70.70
70302;BME280;57706;56.326;43.882;2022-11-22T07:43:01;101031.03;;;0.41;71.22
70302;BME280;57706;56.326;43.882;2022-11-22T07:45:27;101030.28;;;0.39;70.88
70302;BME280;57706;56.326;43.882;2022-11-22T07:47:53;101036.53;;;-0.17;72.22
70302;BME280;57706;56.326;43.882;2022-11-22T07:50:19;101035.03;;;-0.05;72.45
70302;BME280;57706;56.326;43.882;2022-11-22T07:52:45;101028.59;;;0.04;71.90
70302;BME280;57706;56.326;43.882;2022-11-22T07:55:10;101031.34;;;0.01;72.74
70302;BME280;57706;56.326;43.882;2022-11-22T07:57:36;101024.28;;;0.05;72.50
70302;BME280;57706;56.326;43.882;2022-11-22T08:00:04;101028.59;;;0.04;72.60
70302;BME280;57706;56.326;43.882;2022-11-22T08:02:31;101014.94;;;0.18;72.58
70302;BME280;57706;56.326;43.882;2022-11-22T08:04:57;101018.25;;;0.04;71.95
70302;BME280;57706;56.326;43.882;2022-11-22T08:07:23;101006.81;;;0.26;72.13
70302;BME280;57706;56.326;43.882;2022-11-22T08:09:48;101009.16;;;0.47;70.73
70302;BME280;57706;56.326;43.882;2022-11-22T08:12:14;101006.81;;;0.42;70.82
70302;BME280;57706;56.326;43.882;2022-11-22T08:14:40;101001.81;;;0.39;71.62
70302;BME280;57706;56.326;43.882;2022-11-22T08:17:06;100997.16;;;0.62;70.78
70302;BME280;57706;56.326;43.882;2022-11-22T08:19:32;100994.97;;;0.70;69.56
70302;BME280;57706;56.326;43.882;2022-11-22T08:22:00;100992.16;;;0.75;69.62
70302;BME280;57706;56.326;43.882;2022-11-22T08:24:26;100993.63;;;0.95;69.99
70302;BME280;57706;56.326;43.882;2022-11-22T08:26:52;100983.66;;;0.89;69.68
70302;BME280;57706;56.326;43.882;2022-11-22T08:29:18;100976.97;;;0.68;69.73
70302;BME280;57706;56.326;43.882;2022-11-22T08:31:44;100986.34;;;0.71;70.15
70302;BME280;57706;56.326;43.882;2022-11-22T08:34:10;100976.94;;;0.85;69.38
70302;BME280;57706;56.326;43.882;2022-11-22T08:36:35;100978.63;;;1.02;69.58
70302;BME280;57706;56.326;43.882;2022-11-22T08:39:01;100985.47;;;1.33;69.05
70302;BME280;57706;56.326;43.882;2022-11-22T08:41:27;100974.44;;;1.60;67.69
70302;BME280;57706;56.326;43.882;2022-11-22T08:43:53;100960.69;;;1.74;67.64
70302;BME280;57706;56.326;43.882;2022-11-22T08:46:19;100954.28;;;1.65;66.40
70302;BME280;57706;56.326;43.882;2022-11-22T08:48:45;100955.38;;;1.61;67.05
70302;BME280;57706;56.326;43.882;2022-11-22T08:51:12;100944.84;;;1.93;66.23
70302;BME280;57706;56.326;43.882;2022-11-22T08:53:43;100947.25;;;1.82;66.12
70302;BME280;57706;56.326;43.882;2022-11-22T08:56:11;100952.81;;;1.31;66.96
70302;BME280;57706;56.326;43.882;2022-11-22T08:58:38;100954.19;;;1.22;67.83
70302;BME280;57706;56.326;43.882;2022-11-22T09:01:05;100948.28;;;1.34;68.17
70302;BME280;57706;56.326;43.882;2022-11-22T09:03:33;100940.47;;;1.20;68.12
70302;BME280;57706;56.326;43.882;2022-11-22T09:06:03;100946.56;;;1.04;68.83
70302;BME280;57706;56.326;43.882;2022-11-22T09:08:31;100943.69;;;1.09;68.73
70302;BME280;57706;56.326;43.882;2022-11-22T09:11:04;100937.34;;;0.99;68.95
70302;BME280;57706;56.326;43.882;2022-11-22T09:13:49;100926.38;;;0.79;69.38
70302;BME280;57706;56.326;43.882;2022-11-22T09:16:17;100916.69;;;0.82;69.56
70302;BME280;57706;56.326;43.882;2022-11-22T09:18:44;100924.28;;;0.53;70.10
70302;BME280;57706;56.326;43.882;2022-11-22T09:21:13;100923.41;;;0.54;70.68
70302;BME280;57706;56.326;43.882;2022-11-22T09:23:43;100930.00;;;0.60;70.47
70302;BME280;57706;56.326;43.882;2022-11-22T09:26:12;100919.19;;;0.68;70.71
70302;BME280;57706;56.326;43.882;2022-11-22T09:28:38;100923.03;;;0.61;70.46
70302;BME280;57706;56.326;43.882;2022-11-22T09:31:08;100923.56;;;0.35;71.35
70302;BME280;57706;56.326;43.882;2022-11-22T09:33:37;100926.03;;;0.37;71.83
70302;BME280;57706;56.326;43.882;2022-11-22T09:36:09;100924.56;;;0.33;71.47
70302;BME280;57706;56.326;43.882;2022-11-22T09:38:36;100909.88;;;0.17;72.14
70302;BME280;57706;56.326;43.882;2022-11-22T09:47:37;100914.53;;;0.10;72.68
70302;BME280;57706;56.326;43.882;2022-11-22T09:56:21;100898.25;;;-0.08;73.41
70302;BME280;57706;56.326;43.882;2022-11-22T09:58:54;100906.47;;;-0.17;74.21
70302;BME280;57706;56.326;43.882;2022-11-22T10:04:24;100901.00;;;-0.11;74.30
70302;BME280;57706;56.326;43.882;2022-11-22T10:06:58;100891.59;;;-0.30;75.03
70302;BME280;57706;56.326;43.882;2022-11-22T10:09:40;100896.63;;;-0.26;74.55
70302;BME280;57706;56.326;43.882;2022-11-22T10:20:40;100866.91;;;-0.51;75.71
70302;BME280;57706;56.326;43.882;2022-11-22T10:23:17;100860.28;;;-0.23;74.91
70302;BME280;57706;56.326;43.882;2022-11-22T10:25:46;100864.25;;;-0.50;75.78
70302;BME280;57706;56.326;43.882;2022-11-22T10:42:58;100859.66;;;0.05;74.03
70302;BME280;57706;56.326;43.882;2022-11-22T10:56:47;100864.25;;;0.16;74.51
70302;BME280;57706;56.326;43.882;2022-11-22T11:04:59;100852.22;;;-0.01;74.98
70302;BME280;57706;56.326;43.882;2022-11-22T11:07:30;100845.31;;;-0.01;74.96
70302;BME280;57706;56.326;43.882;2022-11-22T11:09:59;100836.72;;;-0.17;75.25
70302;BME280;57706;56.326;43.882;2022-11-22T11:15:52;100833.28;;;-0.18;75.73
70302;BME280;57706;56.326;43.882;2022-11-22T11:18:36;100829.56;;;-0.12;75.77
70302;BME280;57706;56.326;43.882;2022-11-22T11:21:06;100818.63;;;-0.17;75.70
70302;BME280;57706;56.326;43.882;2022-11-22T11:23:51;100822.44;;;-0.24;75.96
70302;BME280;57706;56.326;43.882;2022-11-22T11:26:18;100819.72;;;-0.05;75.92
70302;BME280;57706;56.326;43.882;2022-11-22T11:28:45;100832.66;;;-0.05;75.44
70302;BME280;57706;56.326;43.882;2022-11-22T11:31:11;100817.81;;;-0.02;75.02
70302;BME280;57706;56.326;43.882;2022-11-22T11:33:44;100818.94;;;-0.23;76.00
70302;BME280;57706;56.326;43.882;2022-11-22T11:36:19;100825.28;;;-0.29;76.41
70302;BME280;57706;56.326;43.882;2022-11-22T11:38:51;100823.31;;;-0.08;75.66
70302;BME280;57706;56.326;43.882;2022-11-22T11:43:51;100819.97;;;-0.10;75.77
70302;BME280;57706;56.326;43.882;2022-11-22T11:46:23;100804.97;;;-0.19;76.10
70302;BME280;57706;56.326;43.882;2022-11-22T11:48:54;100806.94;;;-0.24;76.12
70302;BME280;57706;56.326;43.882;2022-11-22T11:54:19;100808.41;;;-0.52;78.14
70302;BME280;57706;56.326;43.882;2022-11-22T11:57:09;100807.75;;;-0.40;77.48
70302;BME280;57706;56.326;43.882;2022-11-22T12:04:57;100780.41;;;-0.60;77.90
70302;BME280;57706;56.326;43.882;2022-11-22T12:09:53;100773.28;;;-0.23;76.77
70302;BME280;57706;56.326;43.882;2022-11-22T12:18:33;100784.56;;;-0.58;78.35
70302;BME280;57706;56.326;43.882;2022-11-22T12:21:24;100780.75;;;-0.50;77.95
70302;BME280;57706;56.326;43.882;2022-11-22T12:26:19;100771.66;;;-0.58;78.42
70302;BME280;57706;56.326;43.882;2022-11-22T12:28:46;100772.31;;;-0.70;78.08
70302;BME280;57706;56.326;43.882;2022-11-22T12:31:34;100766.56;;;-0.59;78.78
70302;BME280;57706;56.326;43.882;2022-11-22T12:34:15;100762.94;;;-0.55;78.36
70302;BME280;57706;56.326;43.882;2022-11-22T12:36:51;100758.56;;;-0.54;78.66
70302;BME280;57706;56.326;43.882;2022-11-22T12:39:23;100776.44;;;-0.34;77.11
70302;BME280;57706;56.326;43.882;2022-11-22T12:42:04;100761.38;;;-0.75;78.94
70302;BME280;57706;56.326;43.882;2022-11-22T12:44:36;100758.06;;;-0.61;78.73
70302;BME280;57706;56.326;43.882;2022-11-22T12:47:18;100751.84;;;-0.41;77.70
70302;BME280;57706;56.326;43.882;2022-11-22T12:49:48;100738.09;;;-0.58;78.88
70302;BME280;57706;56.326;43.882;2022-11-22T12:54:58;100740.78;;;-0.27;77.25
70302;BME280;57706;56.326;43.882;2022-11-22T13:00:22;100739.44;;;-0.50;78.72
70302;BME280;57706;56.326;43.882;2022-11-22T13:02:56;100747.25;;;-0.52;78.68
70302;BME280;57706;56.326;43.882;2022-11-22T13:05:29;100740.75;;;-0.59;78.69
70302;BME280;57706;56.326;43.882;2022-11-22T13:11:17;100740.59;;;-0.56;79.36
70302;BME280;57706;56.326;43.882;2022-11-22T13:13:47;100746.59;;;-0.56;79.09
70302;BME280;57706;56.326;43.882;2022-11-22T13:16:15;100742.09;;;-0.68;78.99
70302;BME280;57706;56.326;43.882;2022-11-22T13:18:48;100734.09;;;-0.63;78.93
70302;BME280;57706;56.326;43.882;2022-11-22T13:21:29;100729.59;;;-0.60;78.88
70302;BME280;57706;56.326;43.882;2022-11-22T13:27:30;100739.06;;;-0.76;79.01
70302;BME280;57706;56.326;43.882;2022-11-22T13:30:00;100735.06;;;-0.82;78.71
70302;BME280;57706;56.326;43.882;2022-11-22T13:32:30;100732.50;;;-0.82;80.55
70302;BME280;57706;56.326;43.882;2022-11-22T13:37:41;100731.31;;;-0.76;79.59
70302;BME280;57706;56.326;43.882;2022-11-22T13:45:52;100721.63;;;-0.89;80.15
70302;BME280;57706;56.326;43.882;2022-11-22T13:51:53;100732.72;;;-0.87;79.88
70302;BME280;57706;56.326;43.882;2022-11-22T13:57:00;100733.44;;;-0.51;78.80
70302;BME280;57706;56.326;43.882;2022-11-22T13:59:26;100738.09;;;-0.58;79.45
70302;BME280;57706;56.326;43.882;2022-11-22T14:02:00;100742.66;;;-0.63;79.21
70302;BME280;57706;56.326;43.882;2022-11-22T14:04:36;100747.75;;;-0.77;78.78
70302;BME280;57706;56.326;43.882;2022-11-22T14:07:22;100737.41;;;-0.77;79.30
70302;BME280;57706;56.326;43.882;2022-11-22T14:12:24;100736.25;;;-0.56;78.80
70302;BME280;57706;56.326;43.882;2022-11-22T14:15:19;100728.44;;;-0.54;78.80
70302;BME280;57706;56.326;43.882;2022-11-22T14:23:29;100717.75;;;-0.64;79.22
70302;BME280;57706;56.326;43.882;2022-11-22T14:30:57;100709.06;;;-0.95;80.20
70302;BME280;57706;56.326;43.882;2022-11-22T14:33:25;100713.94;;;-0.57;79.15
70302;BME280;57706;56.326;43.882;2022-11-22T14:38:37;100719.41;;;-0.63;78.84
70302;BME280;57706;56.326;43.882;2022-11-22T14:44:02;100720.59;;;-0.68;78.37
70302;BME280;57706;56.326;43.882;2022-11-22T14:47:01;100713.94;;;-0.73;78.66
70302;BME280;57706;56.326;43.882;2022-11-22T14:49:44;100722.91;;;-0.80;78.77
70302;BME280;57706;56.326;43.882;2022-11-22T14:52:27;100717.03;;;-0.50;77.86
70302;BME280;57706;56.326;43.882;2022-11-22T14:54:56;100714.13;;;-0.60;77.58
70302;BME280;57706;56.326;43.882;2022-11-22T14:57:25;100703.69;;;-0.74;78.21
70302;BME280;57706;56.326;43.882;2022-11-22T15:00:17;100701.53;;;-0.66;78.06
70302;BME280;57706;56.326;43.882;2022-11-22T15:16:32;100688.78;;;-1.19;81.29
70302;BME280;57706;56.326;43.882;2022-11-22T15:18:58;100689.59;;;-0.85;80.56
70302;BME280;57706;56.326;43.882;2022-11-22T15:21:33;100681.13;;;-0.87;80.75
70302;BME280;57706;56.326;43.882;2022-11-22T15:23:59;100681.06;;;-1.03;80.97